Latest Weather Observations for Perth Airport

IDW60801

Issued at 7:32 pm WST Sunday 3 May 2015 (issued every 30 minutes, with the page automatically refreshed every 10 minutes)

About weather observations | Map of weather stations | Latest weather observations for WA | Other Formats
Station Details ID: 009021 Name: PERTH AIRPORT Lat: -31.93 Lon: 115.98 Height: 15.4 m
Data from the previous 72 hours. | See also: Recent months at Perth Airport
Date/Time
WST
Temp
°C
App
Temp
°C
Dew
Point
Rel
Hum
%
Delta-T
°C
Wind Press
QNH
hPa
Press
MSL
hPa
Rain
since 9 am
mm
Dir
 
Spd
km/h
Gust
km/h
Spd
kts
Gust
kts
03/07:30pm 17.7 14.2 12.3 70 3.0 W 22 37 12 20 1012.4 - 2.6
03/07:00pm 16.9 14.9 12.6 76 2.4 WNW 15 20 8 11 1012.2 - 2.6
03/06:30pm 16.9 14.4 11.2 69 3.1 WNW 15 22 8 12 1011.9 - 2.6
03/05:30pm 17.0 13.9 14.4 85 1.5 W 24 37 13 20 1012.0 - 2.6
03/05:20pm 16.9 14.8 14.6 86 1.3 W 19 26 10 14 1011.9 - 2.6
03/05:00pm 16.6 13.3 14.9 90 1.0 W 26 39 14 21 1011.8 - 1.4
03/04:53pm 17.4 13.3 13.7 79 2.1 W 28 50 15 27 1011.5 - 0.4
03/04:49pm 19.1 15.8 12.9 67 3.5 W 22 35 12 19 1011.4 - 0.0
03/04:30pm 20.0 15.8 12.5 62 4.2 W 26 35 14 19 1011.3 - 0.0
03/04:00pm 21.3 15.1 10.0 48 6.1 WNW 33 52 18 28 1011.5 - 0.0
03/03:56pm 21.2 15.2 10.1 49 6.0 WNW 32 52 17 28 1011.5 - 0.0
03/03:30pm 21.2 15.5 9.9 48 6.1 WNW 30 43 16 23 1011.6 - 0.0
03/03:00pm 20.9 14.7 9.5 48 6.1 WNW 32 44 17 24 1011.9 1011.9 0.0
03/02:43pm 21.5 16.1 9.6 46 6.4 W 28 46 15 25 1011.9 - 0.0
03/02:30pm 20.8 14.9 8.9 46 6.3 W 30 43 16 23 1011.9 - 0.0
03/02:00pm 21.0 15.1 8.9 46 6.4 W 30 46 16 25 1011.9 - 0.0
03/01:49pm 21.9 16.3 8.9 43 6.9 W 28 46 15 25 1011.9 - 0.0
03/01:30pm 21.5 15.7 7.9 41 7.1 WNW 28 41 15 22 1012.0 - 0.0
03/01:00pm 21.1 15.1 8.6 44 6.6 W 30 43 16 23 1012.2 - 0.0
03/12:53pm 20.7 14.5 8.0 44 6.6 W 30 48 16 26 1012.3 - 0.0
03/12:30pm 21.0 14.4 8.4 44 6.6 W 33 46 18 25 1012.6 - 0.0
03/12:02pm 21.8 15.5 7.5 39 7.4 W 30 48 16 26 1013.0 - 0.0
03/12:00pm 21.6 14.8 7.0 39 7.5 WNW 32 48 17 26 1013.0 1013.0 0.0
03/11:48am 21.6 15.8 8.0 41 7.1 WNW 28 46 15 25 1013.0 - 0.0
03/11:30am 20.4 16.1 9.3 49 5.9 WNW 22 33 12 18 1013.2 - 0.0
03/11:00am 21.0 17.2 9.9 49 6.0 WNW 20 30 11 16 1013.4 - 0.0
03/10:30am 20.1 17.0 8.9 48 5.9 NNW 15 22 8 12 1013.7 - 0.0
03/10:00am 19.1 16.9 8.0 48 5.7 N 9 13 5 7 1013.9 - 0.0
03/09:30am 17.8 15.6 8.0 52 5.0 N 9 11 5 6 1014.1 - 0.0
03/09:00am 16.1 14.2 7.7 57 4.2 N 7 11 4 6 1014.2 1014.2 0.0
03/08:30am 14.9 12.6 7.6 61 3.6 N 9 11 5 6 1014.1 - 0.0
03/08:00am 13.5 11.1 7.1 65 3.1 N 9 11 5 6 1013.8 - 0.0
03/07:00am 7.5 5.4 6.6 94 0.4 SSW 7 9 4 5 1013.6 - 0.0
03/06:30am 7.8 5.7 6.7 93 0.5 SSW 7 7 4 4 1013.6 - 0.0
03/05:30am 9.0 7.0 7.1 88 0.9 S 7 7 4 4 1013.3 - 0.0
03/05:00am 9.8 9.2 7.3 84 1.2 CALM 0 0 0 0 1013.3 - 0.0
03/04:00am 12.2 10.0 7.9 75 2.1 S 9 11 5 6 1013.7 - 0.0
03/03:30am 13.2 11.0 7.9 70 2.6 S 9 11 5 6 1013.9 - 0.0
03/02:30am 14.5 11.3 6.9 60 3.7 S 13 15 7 8 1013.9 - 0.0
03/02:00am 14.4 10.9 7.3 62 3.5 S 15 17 8 9 1014.0 - 0.0
03/01:30am 14.9 11.4 7.4 61 3.7 SSW 15 17 8 9 1014.2 - 0.0
03/01:00am 15.1 11.2 7.2 59 3.9 S 17 20 9 11 1014.2 - 0.0
03/12:30am 15.5 10.7 7.4 58 4.0 S 22 28 12 15 1014.2 - 0.0
03/12:00am 15.9 11.1 7.2 56 4.3 S 22 28 12 15 1014.2 1014.2 0.0
 
Date/Time
WST
Temp
°C
App
Temp
°C
Dew
Point
Rel
Hum
%
Delta-T
°C
Wind Press
QNH
hPa
Press
MSL
hPa
Rain
since 9 am
mm
Dir
 
Spd
km/h
Gust
km/h
Spd
kts
Gust
kts
02/11:30pm 16.3 12.0 7.2 55 4.5 S 19 26 10 14 1014.0 - 0.0
02/11:00pm 16.6 12.1 7.1 53 4.7 SSW 20 28 11 15 1014.3 - 0.0
02/10:30pm 16.6 13.1 7.1 53 4.7 SSW 15 19 8 10 1014.5 - 0.0
02/10:00pm 16.7 12.8 7.3 54 4.7 S 17 20 9 11 1014.6 - 0.0
02/09:30pm 16.5 12.7 7.5 55 4.5 S 17 19 9 10 1014.6 - 0.0
02/09:00pm 16.8 12.5 7.7 55 4.6 S 20 26 11 14 1014.8 1014.8 0.0
02/08:30pm 17.3 12.2 7.6 53 4.9 S 24 30 13 16 1014.8 - 0.0
02/08:00pm 17.7 13.7 8.1 53 4.9 SSW 19 24 10 13 1014.8 - 0.0
02/07:30pm 17.8 13.8 8.2 53 4.9 SSW 19 24 10 13 1014.6 - 0.0
02/07:00pm 18.1 14.4 7.9 51 5.2 SSW 17 22 9 12 1014.8 - 0.0
02/06:30pm 18.0 14.4 8.3 53 5.0 SSW 17 24 9 13 1014.4 - 0.0
02/06:00pm 18.2 15.1 8.8 54 4.9 SW 15 22 8 12 1014.1 1014.1 0.0
02/05:30pm 18.8 15.3 8.6 51 5.3 SW 17 24 9 13 1013.6 - 0.0
02/05:00pm 19.2 15.1 8.6 50 5.5 SW 20 24 11 13 1013.4 - 0.0
02/04:30pm 21.2 17.4 7.7 41 7.0 WSW 17 22 9 12 1013.4 - 0.0
02/04:00pm 21.6 17.9 6.4 37 7.7 SW 15 19 8 10 1013.4 - 0.0
02/03:30pm 21.1 17.1 6.7 39 7.3 SSW 17 22 9 12 1013.6 - 0.0
02/03:00pm 21.7 17.1 6.6 37 7.7 SW 20 28 11 15 1013.7 1013.7 0.0
02/02:30pm 21.6 18.1 7.2 39 7.4 WSW 15 22 8 12 1013.8 - 0.0
02/02:00pm 21.8 18.1 6.4 36 7.8 SW 15 22 8 12 1013.9 - 0.0
02/01:30pm 21.6 17.4 5.8 35 7.9 SSW 17 26 9 14 1014.1 - 0.0
02/01:00pm 21.3 17.9 5.9 36 7.7 WSW 13 22 7 12 1014.7 - 0.0
02/12:30pm 21.4 18.1 6.6 38 7.5 WSW 13 20 7 11 1015.2 - 0.0
02/12:00pm 21.1 18.7 7.0 40 7.2 WNW 9 15 5 8 1015.6 1015.6 0.0
02/11:30am 20.7 18.7 7.2 41 6.9 ENE 7 13 4 7 1016.2 - 0.0
02/11:00am 19.8 17.9 6.9 43 6.5 E 6 15 3 8 1016.5 - 0.0
02/10:30am 18.7 15.5 6.7 45 6.0 E 13 19 7 10 1017.0 - 0.0
02/10:00am 17.5 13.0 6.3 47 5.5 ESE 19 24 10 13 1016.9 - 0.0
02/09:30am 16.2 11.6 5.8 50 5.0 E 19 26 10 14 1017.5 - 0.0
02/09:00am 14.8 10.2 5.8 55 4.3 E 19 28 10 15 1017.7 1017.7 0.0
02/08:30am 14.1 10.3 5.6 56 4.0 ENE 15 19 8 10 1017.4 - 0.0
02/08:00am 13.2 9.0 5.5 59 3.6 E 17 26 9 14 1017.4 - 0.0
02/07:30am 12.5 8.6 5.4 62 3.3 E 15 22 8 12 1017.3 - 0.0
02/07:00am 12.2 8.0 5.5 63 3.1 E 17 24 9 13 1017.1 - 0.0
02/06:30am 12.4 9.6 5.3 62 3.3 NE 9 17 5 9 1017.1 - 0.0
02/06:00am 12.6 9.1 5.3 61 3.4 E 13 19 7 10 1016.9 1016.9 0.0
02/05:30am 13.2 8.3 5.2 58 3.7 E 20 33 11 18 1017.0 - 0.0
02/05:00am 13.2 10.0 5.2 58 3.7 E 11 26 6 14 1016.9 - 0.0
02/04:30am 12.9 10.5 5.1 59 3.6 ESE 7 19 4 10 1016.7 - 0.0
02/04:00am 12.8 5.9 4.7 58 3.7 E 30 39 16 21 1016.6 - 0.0
02/03:41am 12.9 5.0 4.3 56 3.9 E 35 54 19 29 1016.8 - 0.0
02/03:30am 12.9 5.0 4.3 56 3.9 E 35 50 19 27 1016.8 - 0.0
02/03:04am 13.0 5.0 3.9 54 4.1 E 35 54 19 29 1017.0 - 0.0
02/03:00am 13.1 5.5 3.8 53 4.2 E 33 50 18 27 1017.0 1017.0 0.0
02/02:34am 13.1 5.4 3.5 52 4.3 E 33 54 18 29 1017.5 - 0.0
02/02:30am 13.1 5.4 3.5 52 4.3 E 33 43 18 23 1017.5 - 0.0
02/02:00am 13.5 5.0 3.2 49 4.6 E 37 52 20 28 1017.4 - 0.0
02/01:33am 13.7 5.6 3.2 49 4.7 E 35 54 19 29 1017.6 - 0.0
02/01:30am 13.8 5.7 3.0 48 4.8 E 35 50 19 27 1017.6 - 0.0
02/01:11am 14.0 6.2 2.7 46 5.0 E 33 52 18 28 1017.6 - 0.0
02/01:00am 14.2 6.3 2.4 45 5.2 E 33 48 18 26 1017.6 - 0.0
02/12:47am 14.2 6.9 2.4 45 5.2 E 30 48 16 26 1017.5 - 0.0
02/12:30am 14.6 8.3 1.8 42 5.6 ESE 24 37 13 20 1017.8 - 0.0
02/12:00am 14.5 9.6 2.2 43 5.4 ESE 17 28 9 15 1018.0 1018.0 0.0
 
Date/Time
WST
Temp
°C
App
Temp
°C
Dew
Point
Rel
Hum
%
Delta-T
°C
Wind Press
QNH
hPa
Press
MSL
hPa
Rain
since 9 am
mm
Dir
 
Spd
km/h
Gust
km/h
Spd
kts
Gust
kts
01/11:30pm 11.2 8.1 3.7 60 3.3 SSE 9 15 5 8 1018.3 - 0.0
01/11:00pm 8.7 5.6 3.6 70 2.2 SE 9 11 5 6 1018.5 - 0.0
01/10:30pm 8.3 6.6 4.2 75 1.8 ENE 2 7 1 4 1018.8 - 0.0
01/10:00pm 8.5 7.2 4.1 74 1.9 CALM 0 7 0 4 1018.9 - 0.0
01/09:30pm 9.3 7.8 4.8 73 2.0 SE 2 7 1 4 1019.1 - 0.0
01/09:00pm 10.3 7.4 4.7 68 2.5 SE 9 11 5 6 1019.0 1019.0 0.0
01/08:30pm 10.5 7.6 4.7 67 2.6 ESE 9 11 5 6 1018.9 - 0.0
01/08:00pm 11.7 8.4 4.4 61 3.3 E 11 13 6 7 1018.9 - 0.0
01/07:30pm 13.1 9.8 4.6 56 3.9 ESE 11 13 6 7 1018.6 - 0.0
01/07:00pm 13.9 10.3 4.8 54 4.2 ESE 13 15 7 8 1018.5 - 0.0
01/06:30pm 15.2 10.7 4.4 48 5.0 SE 17 19 9 10 1017.9 - 0.0
01/06:00pm 16.9 13.0 5.2 46 5.6 SE 15 22 8 12 1017.6 1017.6 0.0
01/05:30pm 19.4 15.1 3.5 35 7.5 ESE 15 20 8 11 1017.3 - 0.0
01/05:00pm 20.6 15.4 3.3 32 8.2 SE 20 28 11 15 1016.9 - 0.0
01/04:30pm 21.3 16.0 2.9 29 8.7 SE 20 28 11 15 1016.7 - 0.0
01/04:00pm 21.9 16.7 3.6 30 8.8 SE 20 30 11 16 1016.7 - 0.0
01/03:30pm 22.0 17.8 3.8 30 8.8 SE 15 26 8 14 1016.9 - 0.0
01/03:00pm 22.2 18.8 4.1 30 8.8 SSE 11 22 6 12 1016.8 1016.8 0.0
01/02:30pm 21.7 18.1 3.2 29 8.8 SE 11 24 6 13 1017.2 - 0.0
01/02:00pm 21.5 18.1 3.8 31 8.5 SSE 11 19 6 10 1017.4 - 0.0
01/01:30pm 21.3 17.8 3.5 31 8.5 SE 11 22 6 12 1017.9 - 0.0
01/01:00pm 21.5 18.4 3.8 31 8.5 SSE 9 17 5 9 1018.2 - 0.0
01/12:30pm 20.5 16.7 3.7 33 8.0 ESE 13 24 7 13 1018.8 - 0.0
01/12:28pm 20.4 16.1 3.5 32 8.0 SE 15 26 8 14 1018.9 - 0.0
01/12:00pm 20.2 16.3 3.5 33 7.9 SSE 13 26 7 14 1019.4 1019.4 0.0
01/11:30am 19.9 14.8 3.9 34 7.6 SSE 20 32 11 17 1019.9 - 0.0
01/11:09am 19.6 14.4 3.4 34 7.6 S 20 30 11 16 1020.0 - 0.0
01/11:00am 19.6 14.1 4.1 36 7.4 S 22 30 12 16 1020.1 - 0.0
01/10:30am 19.2 13.6 3.7 36 7.3 S 22 30 12 16 1020.1 - 0.0
01/10:00am 18.8 13.7 4.0 37 7.0 S 20 26 11 14 1020.4 - 0.0
01/09:30am 18.3 13.3 4.7 40 6.5 SE 20 28 11 15 1020.5 - 0.0
01/09:00am 17.9 13.0 6.8 48 5.5 SSE 22 32 12 17 1020.6 1020.6 0.0
01/08:30am 16.9 11.6 7.0 52 4.9 SSE 24 33 13 18 1020.5 - 0.0
01/08:00am 15.9 11.8 7.7 58 4.1 SSE 19 26 10 14 1020.2 - 0.0
01/07:30am 14.7 11.3 7.6 62 3.5 SSE 15 24 8 13 1020.0 - 0.0
01/07:00am 13.1 10.4 8.9 75 2.1 S 13 17 7 9 1019.4 - 0.0
01/06:30am 12.6 9.5 8.8 77 1.9 SSE 15 19 8 10 1019.1 - 0.0
01/06:00am 12.6 10.2 9.9 83 1.4 S 13 17 7 9 1018.8 1018.8 0.0
01/05:30am 14.5 12.2 10.3 76 2.2 SSE 13 17 7 9 1018.5 - 0.0
01/05:00am 15.1 11.1 10.5 74 2.4 S 22 28 12 15 1018.0 - 0.0
01/04:30am 15.3 12.1 11.2 76 2.2 S 19 24 10 13 1017.8 - 0.0
01/04:00am 15.7 11.6 11.4 75 2.3 S 24 30 13 16 1017.5 - 0.0
01/03:30am 16.1 12.3 12.3 78 2.1 S 24 33 13 18 1017.2 - 0.0
01/03:00am 16.6 11.3 12.4 76 2.3 S 32 37 17 20 1017.2 1017.2 0.0
01/02:30am 18.0 13.4 13.4 74 2.6 S 30 41 16 22 1017.0 - 0.0
01/02:00am 18.7 15.3 13.8 73 2.8 S 24 32 13 17 1016.6 - 0.0
01/01:30am 19.2 15.3 13.4 69 3.3 SSW 26 32 14 17 1016.4 - 0.0
01/01:00am 19.4 17.0 12.8 65 3.7 SW 17 24 9 13 1016.1 - 0.0
01/12:30am 19.7 17.8 14.3 71 3.1 SW 17 26 9 14 1016.0 - 0.0
01/12:00am 19.8 17.6 14.8 73 2.9 SW 20 28 11 15 1015.9 1015.9 0.0
 
Date/Time
WST
Temp
°C
App
Temp
°C
Dew
Point
Rel
Hum
%
Delta-T
°C
Wind Press
QNH
hPa
Press
MSL
hPa
Rain
since 9 am
mm
Dir
 
Spd
km/h
Gust
km/h
Spd
kts
Gust
kts
30/11:43pm 20.0 15.6 15.1 73 2.9 SW 32 37 17 20 1016.0 - 0.0
30/11:30pm 19.7 18.9 15.1 75 2.7 WSW 13 17 7 9 1015.9 - 0.0
30/11:00pm 19.8 19.7 15.0 74 2.8 W 9 13 5 7 1015.9 - 0.0
30/10:30pm 20.1 19.0 15.2 73 2.9 WSW 15 20 8 11 1015.9 - 0.0
30/10:00pm 20.3 18.8 15.2 72 3.0 WSW 17 24 9 13 1015.9 - 0.0
30/09:30pm 20.5 18.6 15.3 72 3.1 WSW 19 26 10 14 1015.8 - 0.0
30/09:00pm 20.7 19.6 16.4 76 2.6 W 17 22 9 12 1015.8 1015.8 0.0
30/08:30pm 21.1 20.0 16.3 74 2.9 W 17 28 9 15 1015.8 - 0.0
30/08:00pm 21.4 21.1 17.3 77 2.5 W 15 22 8 12 1015.5 - 0.0

Other Formats:

Comma delimited format used in spreadsheet applications
http://www.bom.gov.au/fwo/IDW60801/IDW60801.94610.axf

JavaScript Object Notation format (JSON) in row-major order
http://www.bom.gov.au/fwo/IDW60801/IDW60801.94610.json